createdAt,value
2019-06-26T00:00:10.242Z,76.62
2019-06-26T00:02:40.704Z,76.43
2019-06-26T00:05:11.315Z,76.22
2019-06-26T00:07:41.681Z,75.91
2019-06-26T00:10:14.123Z,75.99
2019-06-26T00:12:45.732Z,75.97
2019-06-26T00:15:16.728Z,76.13
2019-06-26T00:17:47.448Z,76.07
2019-06-26T00:20:18.053Z,76.01
2019-06-26T00:22:48.438Z,76.01
2019-06-26T00:25:18.949Z,76.08
2019-06-26T00:27:49.440Z,76.28
2019-06-26T00:30:19.857Z,76.37
2019-06-26T00:32:50.391Z,76.45
2019-06-26T00:35:20.690Z,76.75
2019-06-26T00:37:51.015Z,76.97
2019-06-26T00:40:21.564Z,77.02
2019-06-26T00:42:52.015Z,76.99
2019-06-26T00:45:22.351Z,77.33
2019-06-26T00:47:52.852Z,77.66
2019-06-26T00:50:23.319Z,77.93
2019-06-26T00:52:54.088Z,78.00
2019-06-26T00:55:24.535Z,78.19
2019-06-26T00:57:54.878Z,78.42
2019-06-26T01:00:30.957Z,78.34
2019-06-26T01:03:01.393Z,78.34
2019-06-26T01:05:31.844Z,78.28
2019-06-26T01:08:02.297Z,78.81
2019-06-26T01:10:32.769Z,79.17
2019-06-26T01:13:03.158Z,79.42
2019-06-26T01:15:34.123Z,79.45
2019-06-26T01:18:04.493Z,79.63
2019-06-26T01:20:34.907Z,79.83
2019-06-26T01:23:05.528Z,79.92
2019-06-26T01:25:35.838Z,80.38
2019-06-26T01:28:08.024Z,80.55
2019-06-26T01:30:39.201Z,80.77
2019-06-26T01:33:10.107Z,80.92
2019-06-26T01:35:40.487Z,80.95
2019-06-26T01:38:10.863Z,80.97
2019-06-26T01:40:41.386Z,81.28
2019-06-26T01:43:11.806Z,81.56
2019-06-26T01:45:42.298Z,81.50
2019-06-26T01:48:12.692Z,81.51
2019-06-26T01:50:43.057Z,81.45
2019-06-26T01:53:13.829Z,81.34
2019-06-26T01:55:44.418Z,81.27
2019-06-26T01:58:15.177Z,80.94
2019-06-26T02:00:45.623Z,80.98
2019-06-26T02:03:16.831Z,80.89
2019-06-26T02:05:47.161Z,80.93
2019-06-26T02:08:17.577Z,80.96
2019-06-26T02:10:47.919Z,81.17
2019-06-26T02:13:18.425Z,81.06
2019-06-26T02:15:48.879Z,80.94
2019-06-26T02:18:44.205Z,80.95
2019-06-26T02:21:14.635Z,81.16
2019-06-26T02:23:44.964Z,81.29
2019-06-26T02:26:15.442Z,81.17
2019-06-26T02:28:45.821Z,81.04
2019-06-26T02:31:16.175Z,81.22
2019-06-26T02:33:46.523Z,81.09
2019-06-26T02:36:17.163Z,81.08
2019-06-26T02:38:47.481Z,81.06
2019-06-26T02:41:18.227Z,81.20
2019-06-26T02:43:48.876Z,81.16
2019-06-26T02:46:19.300Z,81.07
2019-06-26T02:48:49.809Z,81.40
2019-06-26T02:51:20.192Z,81.37
2019-06-26T02:53:50.513Z,81.64
2019-06-26T02:56:20.859Z,81.67
2019-06-26T02:58:51.474Z,81.53
2019-06-26T03:01:22.196Z,81.21
2019-06-26T03:03:52.564Z,81.44
2019-06-26T03:06:23.048Z,81.18
2019-06-26T03:08:54.935Z,80.75
2019-06-26T03:11:25.237Z,80.04
2019-06-26T03:13:55.907Z,78.70
2019-06-26T03:16:26.264Z,77.41
2019-06-26T03:18:56.922Z,75.78
2019-06-26T03:21:27.365Z,74.64
2019-06-26T03:23:57.695Z,73.65
2019-06-26T03:26:28.017Z,72.11
2019-06-26T03:28:58.542Z,70.85
2019-06-26T03:31:28.860Z,70.91
2019-06-26T03:33:59.269Z,70.48
2019-06-26T03:36:29.696Z,69.55
2019-06-26T03:39:00.021Z,69.04
2019-06-26T03:41:30.894Z,68.34
2019-06-26T03:44:02.450Z,67.73
2019-06-26T03:46:32.814Z,66.70
2019-06-26T03:49:03.827Z,66.94
2019-06-26T03:51:34.326Z,66.53
2019-06-26T03:54:05.573Z,66.11
2019-06-26T03:56:35.914Z,65.93
2019-06-26T03:59:06.356Z,65.06
2019-06-26T04:01:36.728Z,64.57
2019-06-26T04:04:07.128Z,63.57
2019-06-26T04:06:37.467Z,63.63
2019-06-26T04:09:08.973Z,63.93
2019-06-26T04:11:39.296Z,62.42
2019-06-26T04:14:09.813Z,61.89
2019-06-26T04:16:40.189Z,61.62
2019-06-26T04:19:10.543Z,62.07
2019-06-26T04:21:41.008Z,61.03
2019-06-26T04:24:11.429Z,60.31
2019-06-26T04:26:41.734Z,60.26
2019-06-26T04:29:12.174Z,58.51
2019-06-26T04:31:42.540Z,57.60
2019-06-26T04:34:14.028Z,57.88
2019-06-26T04:36:44.675Z,56.18
2019-06-26T04:39:15.016Z,55.74
2019-06-26T04:41:45.326Z,57.74
2019-06-26T04:44:15.732Z,57.34
2019-06-26T04:46:46.194Z,56.91
2019-06-26T04:49:16.587Z,57.43
2019-06-26T04:51:47.231Z,56.39
2019-06-26T04:54:17.782Z,56.35
2019-06-26T04:56:48.126Z,55.55
2019-06-26T04:59:18.571Z,55.29
2019-06-26T05:01:49.035Z,55.23
2019-06-26T05:04:20.869Z,55.20
2019-06-26T05:06:51.722Z,54.08
2019-06-26T05:09:22.176Z,53.33
2019-06-26T05:11:52.606Z,52.81
2019-06-26T05:14:23.987Z,51.05
2019-06-26T05:16:55.059Z,50.44
2019-06-26T05:19:27.676Z,51.06
2019-06-26T05:21:58.447Z,50.77
2019-06-26T05:24:28.830Z,49.90
2019-06-26T05:26:59.314Z,49.04
2019-06-26T05:29:32.250Z,48.76
2019-06-26T05:32:02.644Z,48.30
2019-06-26T05:34:33.058Z,48.03
2019-06-26T05:37:03.432Z,47.14
2019-06-26T05:39:33.869Z,49.50
2019-06-26T05:42:06.637Z,49.55
2019-06-26T05:44:36.395Z,48.90
2019-06-26T05:47:07.314Z,49.10
2019-06-26T05:49:37.780Z,49.48
2019-06-26T05:52:08.208Z,49.86
2019-06-26T05:54:38.647Z,49.71
2019-06-26T05:57:09.024Z,48.65
2019-06-26T05:59:39.373Z,48.31
2019-06-26T06:02:10.182Z,48.36
2019-06-26T06:04:40.606Z,48.30
2019-06-26T06:07:11.065Z,46.12
2019-06-26T06:09:42.235Z,47.52
2019-06-26T06:12:12.797Z,46.33
2019-06-26T06:14:43.186Z,46.26
2019-06-26T06:17:13.679Z,46.67
2019-06-26T06:19:44.635Z,46.18
2019-06-26T06:22:15.050Z,46.57
2019-06-26T06:24:45.562Z,46.35
2019-06-26T06:27:15.948Z,46.71
2019-06-26T06:29:46.285Z,46.49
2019-06-26T06:32:16.588Z,44.80
2019-06-26T06:34:47.720Z,45.22
2019-06-26T06:37:18.103Z,46.66
2019-06-26T06:39:48.520Z,46.83
2019-06-26T06:42:18.998Z,48.98
2019-06-26T06:44:49.898Z,48.39
2019-06-26T06:47:20.254Z,47.71
2019-06-26T06:49:50.648Z,46.96
2019-06-26T06:52:21.097Z,46.77
2019-06-26T06:54:51.519Z,46.95
2019-06-26T06:57:21.990Z,48.05
2019-06-26T06:59:52.399Z,46.53
2019-06-26T07:02:22.778Z,46.78
2019-06-26T07:04:53.147Z,46.07
2019-06-26T07:07:23.523Z,45.77
2019-06-26T07:09:53.820Z,46.67
2019-06-26T07:12:24.339Z,46.67
2019-06-26T07:14:54.733Z,47.83
2019-06-26T07:17:25.134Z,47.70
2019-06-26T07:19:55.629Z,46.71
2019-06-26T07:22:26.128Z,45.01
2019-06-26T07:24:56.565Z,44.89
2019-06-26T07:27:26.976Z,45.62
2019-06-26T07:29:57.346Z,44.46
2019-06-26T07:32:27.823Z,44.77
2019-06-26T07:34:58.232Z,45.22
2019-06-26T07:37:28.565Z,43.87
2019-06-26T07:40:02.145Z,45.42
2019-06-26T07:42:31.420Z,45.66
2019-06-26T07:45:01.754Z,45.57
2019-06-26T07:47:43.169Z,44.65
2019-06-26T07:50:06.038Z,44.22
2019-06-26T07:52:36.381Z,45.70
2019-06-26T07:55:06.916Z,45.83
2019-06-26T07:57:37.441Z,46.33
2019-06-26T08:00:08.366Z,46.63
2019-06-26T08:02:38.736Z,46.24
2019-06-26T08:05:09.580Z,47.81
2019-06-26T08:07:40.016Z,48.27
2019-06-26T08:10:10.775Z,49.86
2019-06-26T08:12:41.225Z,48.50
2019-06-26T08:15:11.915Z,46.86
2019-06-26T08:17:58.787Z,46.67
2019-06-26T08:20:14.625Z,48.94
2019-06-26T08:22:45.023Z,51.11
2019-06-26T08:25:15.609Z,52.73
2019-06-26T08:27:46.172Z,53.29
2019-06-26T08:30:16.838Z,53.08
2019-06-26T08:32:47.155Z,54.83
2019-06-26T08:35:18.194Z,54.14
2019-06-26T08:37:48.563Z,53.78
2019-06-26T08:40:19.547Z,53.93
2019-06-26T08:42:49.989Z,54.43
2019-06-26T08:45:20.557Z,54.15
2019-06-26T08:47:51.411Z,53.43
2019-06-26T08:50:22.053Z,53.27
2019-06-26T08:52:52.380Z,53.13
2019-06-26T08:55:22.946Z,53.41
2019-06-26T08:57:53.587Z,53.95
2019-06-26T09:00:24.334Z,53.98
2019-06-26T09:02:55.097Z,56.28
2019-06-26T09:05:26.006Z,56.05
2019-06-26T09:07:56.392Z,56.32
2019-06-26T09:10:26.844Z,55.47
2019-06-26T09:12:57.398Z,55.24
2019-06-26T09:15:28.184Z,55.19
2019-06-26T09:17:58.587Z,54.64
2019-06-26T09:20:35.988Z,55.65
2019-06-26T09:23:06.436Z,55.62
2019-06-26T09:25:36.883Z,54.17
2019-06-26T09:28:07.769Z,55.19
2019-06-26T09:30:38.069Z,54.49
2019-06-26T09:33:08.430Z,54.18
2019-06-26T09:35:38.853Z,55.29
2019-06-26T09:38:09.231Z,55.55
2019-06-26T09:40:40.608Z,56.04
2019-06-26T09:43:11.011Z,55.17
2019-06-26T09:45:41.363Z,56.61
2019-06-26T09:48:13.291Z,56.89
2019-06-26T09:50:43.726Z,57.60
2019-06-26T09:53:14.072Z,58.38
2019-06-26T09:55:44.455Z,58.51
2019-06-26T09:58:14.918Z,60.03
2019-06-26T10:00:45.371Z,59.97
2019-06-26T10:03:15.787Z,60.22
2019-06-26T10:05:46.226Z,60.62
2019-06-26T10:08:16.731Z,60.11
2019-06-26T10:10:47.278Z,58.97
2019-06-26T10:13:17.951Z,59.61
2019-06-26T10:15:48.530Z,60.00
2019-06-26T10:18:19.863Z,59.70
2019-06-26T10:20:50.477Z,59.12
2019-06-26T10:23:20.949Z,60.07
2019-06-26T10:25:51.275Z,59.08
2019-06-26T10:28:21.704Z,59.14
2019-06-26T10:30:52.152Z,59.78
2019-06-26T10:33:22.494Z,60.45
2019-06-26T10:35:52.872Z,60.84
2019-06-26T10:38:23.368Z,59.35
2019-06-26T10:40:53.815Z,58.02
2019-06-26T10:43:25.106Z,57.69
2019-06-26T10:45:55.459Z,58.41
2019-06-26T10:48:26.010Z,59.49
2019-06-26T10:50:58.752Z,59.22
2019-06-26T10:53:28.578Z,58.17
2019-06-26T10:55:59.542Z,57.94
2019-06-26T10:58:29.933Z,57.66
2019-06-26T11:01:00.305Z,58.21
2019-06-26T11:03:30.838Z,59.37
2019-06-26T11:06:01.487Z,58.98
2019-06-26T11:08:31.947Z,57.92
2019-06-26T11:11:02.346Z,58.23
2019-06-26T11:13:32.785Z,57.53
2019-06-26T11:16:03.697Z,58.82
2019-06-26T11:18:34.060Z,58.94
2019-06-26T11:21:04.507Z,58.93
2019-06-26T11:23:34.831Z,58.84
2019-06-26T11:26:05.158Z,59.60
2019-06-26T11:28:35.674Z,60.96
2019-06-26T11:31:06.613Z,60.05
2019-06-26T11:33:37.104Z,59.65
2019-06-26T11:36:08.005Z,60.16
2019-06-26T11:38:38.341Z,61.07
2019-06-26T11:41:09.393Z,61.08
2019-06-26T11:43:39.806Z,61.48
2019-06-26T11:46:10.181Z,61.14
2019-06-26T11:48:40.653Z,60.56
2019-06-26T11:51:11.109Z,59.81
2019-06-26T11:53:41.890Z,59.90
2019-06-26T11:56:12.857Z,59.95
2019-06-26T11:58:43.688Z,59.01
2019-06-26T12:01:14.090Z,60.10
2019-06-26T12:03:44.671Z,60.05
2019-06-26T12:06:19.243Z,59.46
2019-06-26T12:08:47.873Z,59.49
2019-06-26T12:11:18.616Z,59.88
2019-06-26T12:13:49.575Z,58.67
2019-06-26T12:16:19.960Z,58.77
2019-06-26T12:18:50.402Z,57.78
2019-06-26T12:21:21.070Z,58.93
2019-06-26T12:24:01.239Z,57.53
2019-06-26T12:26:31.773Z,57.64
2019-06-26T12:29:02.359Z,57.60
2019-06-26T12:31:32.708Z,57.18
2019-06-26T12:34:03.161Z,58.17
2019-06-26T12:36:33.789Z,59.17
2019-06-26T12:39:05.781Z,58.87
2019-06-26T12:41:36.090Z,59.45
2019-06-26T12:44:06.481Z,60.09
2019-06-26T12:46:37.054Z,60.90
2019-06-26T12:49:07.425Z,60.97
2019-06-26T12:51:40.987Z,61.51
2019-06-26T12:54:12.400Z,61.87
2019-06-26T12:56:42.972Z,61.85
2019-06-26T12:59:13.345Z,61.56
2019-06-26T13:01:43.795Z,61.88
2019-06-26T13:04:14.489Z,60.51
2019-06-26T13:06:44.864Z,59.67
2019-06-26T13:09:15.233Z,59.82
2019-06-26T13:11:45.685Z,59.89
2019-06-26T13:14:16.113Z,59.27
2019-06-26T13:16:46.504Z,59.52
2019-06-26T13:19:16.950Z,60.13
2019-06-26T13:21:47.701Z,59.58
2019-06-26T13:24:18.155Z,59.61
2019-06-26T13:26:48.795Z,60.59
2019-06-26T13:29:19.134Z,61.25
2019-06-26T13:31:49.589Z,60.93
2019-06-26T13:34:20.251Z,60.43
2019-06-26T13:36:50.581Z,60.84
2019-06-26T13:39:21.375Z,61.41
2019-06-26T13:41:52.485Z,62.08
2019-06-26T13:44:24.710Z,61.79
2019-06-26T13:46:55.278Z,62.81
2019-06-26T13:49:25.702Z,63.11
2019-06-26T13:51:56.213Z,62.41
2019-06-26T13:54:26.800Z,63.62
2019-06-26T13:56:57.205Z,63.75
2019-06-26T13:59:27.608Z,64.74
2019-06-26T14:01:58.088Z,64.76
2019-06-26T14:04:28.482Z,64.93
2019-06-26T14:06:58.920Z,65.82
2019-06-26T14:09:29.343Z,65.72
2019-06-26T14:11:59.712Z,66.06
2019-06-26T14:14:52.713Z,66.31
2019-06-26T14:17:02.585Z,66.66
2019-06-26T14:19:33.162Z,66.25
2019-06-26T14:22:03.702Z,66.80
2019-06-26T14:24:34.321Z,65.67
2019-06-26T14:27:04.712Z,65.80
2019-06-26T14:29:35.136Z,66.57
2019-06-26T14:32:05.624Z,66.82
2019-06-26T14:34:38.126Z,65.81
2019-06-26T14:37:08.588Z,66.35
2019-06-26T14:39:41.058Z,66.76
2019-06-26T14:42:11.105Z,67.22
2019-06-26T14:44:41.711Z,67.47
2019-06-26T14:47:12.086Z,67.49
2019-06-26T14:49:42.509Z,68.04
2019-06-26T14:52:12.945Z,68.23
2019-06-26T14:54:43.373Z,68.01
2019-06-26T14:57:14.227Z,68.14
2019-06-26T14:59:45.835Z,68.04
2019-06-26T15:02:16.234Z,68.30
2019-06-26T15:04:46.734Z,68.30
2019-06-26T15:07:18.768Z,68.48
2019-06-26T15:09:49.790Z,68.39
2019-06-26T15:12:20.347Z,68.60
2019-06-26T15:14:50.995Z,68.98
2019-06-26T15:17:24.400Z,68.99
2019-06-26T15:19:55.206Z,68.97
2019-06-26T15:22:25.620Z,68.93
2019-06-26T15:24:56.263Z,69.41
2019-06-26T15:27:27.300Z,69.57
2019-06-26T15:29:57.642Z,68.66
2019-06-26T15:32:29.021Z,68.54
2019-06-26T15:34:59.917Z,68.56
2019-06-26T15:37:30.390Z,67.16
2019-06-26T15:40:00.735Z,67.53
2019-06-26T15:42:31.456Z,67.37
2019-06-26T15:45:01.950Z,66.73
2019-06-26T15:47:32.342Z,66.18
2019-06-26T15:50:02.882Z,66.15
2019-06-26T15:52:33.266Z,64.37
2019-06-26T15:55:04.654Z,63.60
2019-06-26T15:57:36.448Z,63.49
2019-06-26T16:00:07.497Z,62.87
2019-06-26T16:02:37.920Z,63.35
2019-06-26T16:05:08.625Z,62.85
2019-06-26T16:07:39.005Z,62.87
2019-06-26T16:10:09.789Z,63.57
2019-06-26T16:12:40.163Z,63.40
2019-06-26T16:15:11.140Z,64.05
2019-06-26T16:17:50.411Z,63.87
2019-06-26T16:20:20.834Z,64.12
2019-06-26T16:22:51.295Z,64.12
2019-06-26T16:25:21.912Z,64.34
2019-06-26T16:28:04.674Z,64.98
2019-06-26T16:30:24.365Z,65.57
2019-06-26T16:32:56.939Z,65.62
2019-06-26T16:35:27.156Z,65.57
2019-06-26T16:37:57.668Z,65.77
2019-06-26T16:40:28.261Z,66.11
2019-06-26T16:42:58.971Z,66.46
2019-06-26T16:45:29.401Z,66.55
2019-06-26T16:47:59.936Z,66.75
2019-06-26T16:50:30.598Z,67.27
2019-06-26T16:53:00.944Z,67.44
2019-06-26T16:55:31.477Z,66.10
2019-06-26T16:58:01.878Z,66.49
2019-06-26T17:00:32.417Z,66.23
2019-06-26T17:03:02.970Z,66.64
2019-06-26T17:05:33.431Z,66.87
2019-06-26T17:08:03.828Z,66.95
2019-06-26T17:10:34.246Z,67.37
2019-06-26T17:13:04.629Z,67.69
2019-06-26T17:15:35.061Z,67.81
2019-06-26T17:18:05.618Z,68.32
2019-06-26T17:20:35.979Z,68.56
2019-06-26T17:23:06.783Z,68.51
2019-06-26T17:25:37.317Z,68.63
2019-06-26T17:28:07.717Z,68.66
2019-06-26T17:30:38.546Z,68.72
2019-06-26T17:33:09.144Z,68.98
2019-06-26T17:35:39.493Z,68.91
2019-06-26T17:38:09.825Z,69.19
2019-06-26T17:40:41.006Z,69.67
2019-06-26T17:43:12.946Z,69.60
2019-06-26T17:45:43.726Z,69.71
2019-06-26T17:48:14.204Z,69.94
2019-06-26T17:50:44.674Z,69.36
2019-06-26T17:53:21.613Z,69.31
2019-06-26T17:55:47.263Z,69.11
2019-06-26T17:58:17.726Z,68.90
2019-06-26T18:00:48.153Z,69.03
2019-06-26T18:03:18.649Z,69.13
2019-06-26T18:05:49.025Z,69.15
2019-06-26T18:08:19.437Z,69.40
2019-06-26T18:10:49.890Z,69.63
2019-06-26T18:13:20.424Z,70.20
2019-06-26T18:15:50.839Z,70.56
2019-06-26T18:18:21.335Z,70.72
2019-06-26T18:20:51.784Z,70.00
2019-06-26T18:23:36.706Z,69.80
2019-06-26T18:26:11.541Z,68.83
2019-06-26T18:28:26.551Z,68.40
2019-06-26T18:30:57.063Z,68.29
2019-06-26T18:33:27.752Z,68.11
2019-06-26T18:35:58.148Z,68.37
2019-06-26T18:38:30.594Z,68.28
2019-06-26T18:41:01.047Z,67.76
2019-06-26T18:43:31.434Z,68.19
2019-06-26T18:46:01.900Z,68.44
2019-06-26T18:48:32.439Z,68.76
2019-06-26T18:51:03.193Z,69.07
2019-06-26T18:53:33.611Z,68.64
2019-06-26T18:56:04.660Z,68.14
2019-06-26T18:58:35.067Z,68.09
2019-06-26T19:01:05.447Z,67.72
2019-06-26T19:03:36.363Z,67.53
2019-06-26T19:06:06.760Z,67.03
2019-06-26T19:08:37.167Z,66.79
2019-06-26T19:11:07.616Z,66.39
2019-06-26T19:13:37.965Z,66.32
2019-06-26T19:16:08.346Z,65.97
2019-06-26T19:18:38.755Z,66.04
2019-06-26T19:21:10.218Z,67.13
2019-06-26T19:23:40.858Z,67.96
2019-06-26T19:26:11.184Z,68.30
2019-06-26T19:28:41.879Z,68.46
2019-06-26T19:31:12.316Z,68.83
2019-06-26T19:33:45.624Z,69.43
2019-06-26T19:36:14.921Z,69.84
2019-06-26T19:38:45.432Z,69.96
2019-06-26T19:41:15.812Z,69.70
2019-06-26T19:43:46.242Z,69.90
2019-06-26T19:46:16.644Z,69.68
2019-06-26T19:48:46.999Z,69.45
2019-06-26T19:51:17.395Z,69.10
2019-06-26T19:53:48.112Z,68.83
2019-06-26T19:56:20.243Z,68.74
2019-06-26T19:58:50.796Z,68.77
2019-06-26T20:01:21.336Z,68.58
2019-06-26T20:03:51.735Z,68.28
2019-06-26T20:06:22.755Z,68.41
2019-06-26T20:08:57.551Z,68.40
2019-06-26T20:11:26.855Z,68.32
2019-06-26T20:13:57.842Z,67.99
2019-06-26T20:16:28.488Z,67.49
2019-06-26T20:18:58.842Z,67.31
2019-06-26T20:21:29.227Z,66.98
2019-06-26T20:23:59.720Z,66.33
2019-06-26T20:26:30.076Z,66.16
2019-06-26T20:29:00.390Z,65.72
2019-06-26T20:31:31.319Z,65.28
2019-06-26T20:34:01.653Z,65.03
2019-06-26T20:36:32.014Z,64.84
2019-06-26T20:39:02.452Z,64.13
2019-06-26T20:41:32.795Z,63.94
2019-06-26T20:44:03.755Z,63.51
2019-06-26T20:46:34.210Z,63.35
2019-06-26T20:49:04.794Z,63.14
2019-06-26T20:51:37.353Z,63.25
2019-06-26T20:54:08.066Z,63.28
2019-06-26T20:56:39.092Z,63.03
2019-06-26T20:59:09.455Z,62.78
2019-06-26T21:01:40.058Z,62.10
2019-06-26T21:04:11.526Z,62.19
2019-06-26T21:06:42.430Z,63.71
2019-06-26T21:09:12.929Z,63.77
2019-06-26T21:11:43.356Z,63.48
2019-06-26T21:14:13.710Z,63.58
2019-06-26T21:16:44.219Z,63.23
2019-06-26T21:19:14.737Z,63.22
2019-06-26T21:21:45.105Z,64.20
2019-06-26T21:24:15.606Z,64.87
2019-06-26T21:26:46.458Z,65.02
2019-06-26T21:29:17.023Z,65.07
2019-06-26T21:31:47.615Z,64.96
2019-06-26T21:34:18.152Z,65.25
2019-06-26T21:36:48.892Z,65.36
2019-06-26T21:39:19.440Z,64.95
2019-06-26T21:41:49.890Z,65.26
2019-06-26T21:44:20.432Z,65.48
2019-06-26T21:49:34.708Z,64.32
2019-06-26T21:52:05.787Z,63.97
2019-06-26T21:54:36.373Z,64.24
2019-06-26T21:57:11.466Z,64.13
2019-06-26T22:00:04.138Z,63.38
2019-06-26T22:02:35.443Z,62.79
2019-06-26T22:05:07.558Z,62.98
2019-06-26T22:07:51.309Z,63.47
2019-06-26T22:10:29.020Z,63.81
2019-06-26T22:12:59.709Z,63.88
2019-06-26T22:15:30.329Z,63.87
2019-06-26T22:18:00.737Z,64.20
2019-06-26T22:20:31.151Z,64.91
2019-06-26T22:23:01.677Z,66.01
2019-06-26T22:25:32.597Z,67.12
2019-06-26T22:28:03.135Z,67.73
2019-06-26T22:30:33.500Z,68.06
2019-06-26T22:33:05.068Z,68.65
2019-06-26T22:35:35.605Z,69.08
2019-06-26T22:38:06.121Z,69.37
2019-06-26T22:40:36.500Z,69.78
2019-06-26T22:43:07.567Z,69.82
2019-06-26T22:45:45.455Z,69.99
2019-06-26T22:48:16.010Z,70.06
2019-06-26T22:50:52.299Z,69.94
2019-06-26T22:53:22.762Z,69.75
2019-06-26T22:56:07.446Z,69.38
2019-06-26T22:58:37.001Z,69.39
2019-06-26T23:01:11.990Z,69.40
2019-06-26T23:03:42.567Z,69.42
2019-06-26T23:06:14.204Z,69.25
2019-06-26T23:08:44.701Z,68.80
2019-06-26T23:11:15.340Z,68.53
2019-06-26T23:13:46.728Z,68.04
2019-06-26T23:16:17.451Z,67.77
2019-06-26T23:19:20.037Z,67.50
2019-06-26T23:21:51.715Z,66.97
2019-06-26T23:24:22.153Z,66.67
2019-06-26T23:26:52.675Z,66.25
2019-06-26T23:29:23.073Z,66.37
2019-06-26T23:31:53.563Z,66.55
2019-06-26T23:34:23.887Z,66.77
2019-06-26T23:36:54.239Z,66.93
2019-06-26T23:39:24.805Z,67.12
2019-06-26T23:41:55.207Z,67.31
2019-06-26T23:44:25.624Z,67.19
2019-06-26T23:46:56.394Z,66.87
2019-06-26T23:49:26.713Z,66.51
2019-06-26T23:51:57.054Z,66.38
2019-06-26T23:54:28.546Z,66.32
2019-06-26T23:57:15.166Z,65.78
2019-06-26T23:59:45.537Z,65.96
